Classifiche di sempre
Migliori tempi personali validi di team tra tutti gli eventi e le stagioni. Ogni team compare una sola volta per divisione.
Cerca per nome e apri la pagina in cui è classificato questo record di divisione.
133,335 team in classifica
| Pos. | Pos. AG | Team | Nazionalità | Categoria età | TempoMiglior tempo | Distacco |
|---|---|---|---|---|---|---|
| 124476 | #16627 | Nicolle Sosnovec & Fabian AriasAUS · X 40-44 · AG #16627 | AUS | X 40-44 | 1:49:03 | +59:50 |
| 124477 | #15313 | Janice Nortemann & Zukisani DikanaRSA · X 35-39 · AG #15313 | RSA | X 35-39 | 1:49:03 | +59:50 |
| 124478 | #43910 | Rhulani Mabunda & Moonlight MkhonzaRSA · X 30-34 · AG #43910 | RSA | X 30-34 | 1:49:03 | +59:50 |
| 124479 | #16629 | Fadeela Sibda & Tawanda ChiweweteX 40-44 · AG #16629 | -- | X 40-44 | 1:49:03 | +59:50 |
| 124480 | #43911 | Dean Mcleary & Viantha MclearyRSA · X 30-34 · AG #43911 | RSA | X 30-34 | 1:49:03 | +59:50 |
| 124481 | #16631 | Sean Salinger & Nichola Collette-YatesGBR · X 40-44 · AG #16631 | GBR | X 40-44 | 1:49:03 | +59:50 |
| 124482 | #16632 | Mariann Dr.Tettinger & Tamás Zoltán Dr. BagiHUN · X 40-44 · AG #16632 | HUN | X 40-44 | 1:49:03 | +59:50 |
| 124483 | #43912 | Lucie Ares & Vivien LabourFRA · X 30-34 · AG #43912 | FRA | X 30-34 | 1:49:03 | +59:50 |
| 124484 | -- | Syron Ng & Jia Wen SiowSIN · X XU29 | SIN | X XU29 | 1:49:03 | +59:50 |
| 124485 | #43913 | Yann Hertzschuch & Ana Sofia Alves LoboX 30-34 · AG #43913 | -- | X 30-34 | 1:49:03 | +59:50 |
| 124486 | #43914 | Siu Yuen Victor Tang & Chong XiaoHKG · X 30-34 · AG #43914 | HKG | X 30-34 | 1:49:03 | +59:50 |
| 124487 | #43915 | Justin Case & Luckee McKnightUSA · X 30-34 · AG #43915 | USA | X 30-34 | 1:49:03 | +59:50 |
| 124488 | #16633 | Irina Chee & Tji Tjian CheeX 40-44 · AG #16633 | -- | X 40-44 | 1:49:03 | +59:50 |
| 124489 | #200 | Elmer Neufeld & Carolyn CollinsCAN · X 60-64 · AG #200 | CAN | X 60-64 | 1:49:04 | +59:51 |
| 124490 | #19021 | Tyson Querengesser & Isabella PapaliaCAN · X 25-29 · AG #19021 | CAN | X 25-29 | 1:49:04 | +59:51 |
| 124491 | #15314 | Tiffany Kosky & James KoskyAUS · X 35-39 · AG #15314 | AUS | X 35-39 | 1:49:04 | +59:51 |
| 124492 | #15315 | Leigh Todd & Robyn ToddGBR · X 35-39 · AG #15315 | GBR | X 35-39 | 1:49:04 | +59:51 |
| 124493 | #19022 | Jed Yap & Faith QuekSIN · X 25-29 · AG #19022 | SIN | X 25-29 | 1:49:04 | +59:51 |
| 124494 | #43918 | Gary Souden & Jacqui SoudenGBR · X 30-34 · AG #43918 | GBR | X 30-34 | 1:49:04 | +59:51 |
| 124495 | #16635 | Karin M Mahmoud & Felix HidalgoUSA · X 40-44 · AG #16635 | USA | X 40-44 | 1:49:04 | +59:51 |
| 124496 | #16634 | Monica Janssen & Stuart AdamsUSA · X 40-44 · AG #16634 | USA | X 40-44 | 1:49:04 | +59:51 |
| 124497 | #43916 | Noelle Chang & Sung KimUSA · X 30-34 · AG #43916 | USA | X 30-34 | 1:49:04 | +59:51 |
| 124498 | #16636 | 阳 喻 & 佳 刘CHN · X 40-44 · AG #16636 | CHN | X 40-44 | 1:49:04 | +59:51 |
| 124499 | #43919 | Napatsorn Oonsaengchan & Chanat SirisoonthornTHA · X 30-34 · AG #43919 | THA | X 30-34 | 1:49:04 | +59:51 |
| 124500 | #19023 | Anna Raby & Jared DobbsUSA · X 25-29 · AG #19023 | USA | X 25-29 | 1:49:04 | +59:51 |
Pagina 4,980 di 5,334